createdAt,value
2019-05-02T00:01:09.477Z,15.07
2019-05-02T00:04:20.096Z,15.20
2019-05-02T00:07:20.093Z,15.53
2019-05-02T00:10:26.058Z,15.50
2019-05-02T00:13:30.162Z,16.62
2019-05-02T00:16:34.043Z,15.60
2019-05-02T00:19:37.980Z,16.30
2019-05-02T00:22:41.729Z,16.07
2019-05-02T00:25:47.333Z,16.67
2019-05-02T00:28:50.922Z,15.85
2019-05-02T00:31:54.614Z,15.70
2019-05-02T00:34:58.297Z,15.08
2019-05-02T00:38:02.427Z,14.07
2019-05-02T00:41:06.562Z,15.07
2019-05-02T00:44:10.954Z,15.03
2019-05-02T00:47:24.130Z,15.47
2019-05-02T00:50:29.494Z,15.00
2019-05-02T00:53:33.269Z,15.30
2019-05-02T00:56:40.109Z,14.40
2019-05-02T00:59:43.559Z,14.40
2019-05-02T01:02:58.011Z,15.17
2019-05-02T01:06:02.193Z,15.23
2019-05-02T01:09:10.884Z,14.47
2019-05-02T01:12:25.182Z,14.23
2019-05-02T01:15:18.533Z,13.23
2019-05-02T01:18:24.998Z,14.43
2019-05-02T01:21:28.885Z,13.53
2019-05-02T01:24:34.183Z,13.47
2019-05-02T01:27:43.137Z,12.83
2019-05-02T01:31:06.725Z,14.47
2019-05-02T01:34:27.301Z,13.60
2019-05-02T01:37:51.065Z,14.77
2019-05-02T01:40:55.752Z,13.80
2019-05-02T01:44:00.260Z,13.70
2019-05-02T01:47:05.122Z,14.73
2019-05-02T01:50:08.886Z,14.20
2019-05-02T01:53:12.823Z,14.50
2019-05-02T01:56:16.537Z,14.57
2019-05-02T01:59:20.485Z,14.03
2019-05-02T02:02:28.064Z,13.37
2019-05-02T02:05:32.296Z,14.47
2019-05-02T02:08:35.114Z,13.33
2019-05-02T02:11:38.852Z,13.43
2019-05-02T02:14:42.779Z,14.10
2019-05-02T02:17:46.969Z,13.23
2019-05-02T02:20:59.393Z,14.07
2019-05-02T02:24:09.756Z,14.27
2019-05-02T02:27:13.437Z,14.17
2019-05-02T02:30:23.908Z,13.57
2019-05-02T02:33:23.114Z,14.17
2019-05-02T02:36:31.501Z,13.33
2019-05-02T02:39:32.186Z,15.07
2019-05-02T02:42:35.901Z,13.60
2019-05-02T02:46:07.137Z,14.07
2019-05-02T02:49:13.927Z,15.23
2019-05-02T02:52:16.211Z,14.30
2019-05-02T02:55:22.043Z,13.57
2019-05-02T02:58:25.266Z,13.50
2019-05-02T03:01:31.125Z,13.17
2019-05-02T03:04:34.603Z,13.47
2019-05-02T03:07:39.683Z,13.20
2019-05-02T03:10:45.110Z,12.27
2019-05-02T03:14:06.160Z,13.40
2019-05-02T03:16:59.910Z,13.37
2019-05-02T03:20:04.049Z,12.50
2019-05-02T03:23:07.768Z,13.05
2019-05-02T03:26:15.341Z,12.50
2019-05-02T03:29:16.821Z,13.10
2019-05-02T03:32:31.734Z,12.10
2019-05-02T03:35:40.266Z,13.20
2019-05-02T03:38:35.051Z,12.97
2019-05-02T03:41:37.897Z,12.57
2019-05-02T03:44:41.547Z,12.33
2019-05-02T03:47:46.586Z,12.27
2019-05-02T03:50:51.023Z,12.63
2019-05-02T03:54:06.458Z,11.90
2019-05-02T03:57:00.476Z,11.80
2019-05-02T04:00:05.282Z,11.87
2019-05-02T04:03:09.088Z,11.37
2019-05-02T04:06:13.974Z,11.67
2019-05-02T04:09:40.042Z,12.00
2019-05-02T04:12:42.726Z,11.47
2019-05-02T04:15:46.751Z,10.70
2019-05-02T04:18:56.120Z,11.60
2019-05-02T04:22:01.628Z,11.53
2019-05-02T04:25:06.093Z,11.37
2019-05-02T04:28:11.876Z,11.67
2019-05-02T04:31:13.392Z,11.70
2019-05-02T04:34:17.932Z,11.50
2019-05-02T04:37:21.871Z,10.57
2019-05-02T04:40:28.198Z,11.17
2019-05-02T04:43:31.309Z,10.90
2019-05-02T04:46:35.086Z,11.10
2019-05-02T04:49:39.227Z,10.35
2019-05-02T04:52:48.400Z,10.70
2019-05-02T04:56:07.065Z,10.70
2019-05-02T04:59:13.968Z,10.30
2019-05-02T05:02:12.966Z,10.50
2019-05-02T05:05:25.027Z,11.37
2019-05-02T05:08:26.214Z,10.97
2019-05-02T05:11:27.531Z,10.33
2019-05-02T05:14:38.199Z,10.97
2019-05-02T05:17:37.510Z,11.03
2019-05-02T05:20:45.963Z,9.90
2019-05-02T05:24:18.158Z,9.30
2019-05-02T05:27:22.901Z,10.43
2019-05-02T05:30:27.819Z,10.23
2019-05-02T05:33:31.551Z,9.77
2019-05-02T05:36:37.020Z,9.43
2019-05-02T05:39:42.946Z,9.30
2019-05-02T05:42:48.107Z,8.73
2019-05-02T05:45:56.320Z,10.17
2019-05-02T05:48:58.331Z,8.90
2019-05-02T05:52:03.808Z,8.93
2019-05-02T05:55:12.699Z,8.73
2019-05-02T05:58:15.818Z,8.97
2019-05-02T06:01:20.576Z,8.70
2019-05-02T06:04:32.735Z,8.00
2019-05-02T06:07:33.685Z,7.93
2019-05-02T06:10:38.960Z,8.80
2019-05-02T06:13:48.903Z,8.30
2019-05-02T06:16:51.676Z,8.87
2019-05-02T06:19:55.423Z,9.23
2019-05-02T06:22:59.944Z,8.37
2019-05-02T06:26:07.843Z,8.97
2019-05-02T06:29:13.050Z,9.13
2019-05-02T06:32:19.364Z,8.90
2019-05-02T06:35:23.081Z,8.63
2019-05-02T06:38:26.800Z,9.03
2019-05-02T06:41:30.466Z,9.87
2019-05-02T06:44:34.205Z,9.87
2019-05-02T06:47:41.657Z,9.23
2019-05-02T06:50:43.511Z,9.57
2019-05-02T06:53:48.988Z,9.43
2019-05-02T06:56:52.749Z,9.10
2019-05-02T06:59:57.165Z,9.68
2019-05-02T07:03:04.995Z,9.73
2019-05-02T07:06:07.834Z,10.43
2019-05-02T07:09:12.090Z,10.87
2019-05-02T07:12:16.666Z,10.97
2019-05-02T07:15:58.327Z,11.20
2019-05-02T07:19:10.637Z,10.78
2019-05-02T07:22:14.780Z,10.90
2019-05-02T07:25:18.676Z,11.30
2019-05-02T07:28:23.948Z,11.10
2019-05-02T07:31:27.836Z,10.97
2019-05-02T07:34:31.766Z,10.90
2019-05-02T07:37:35.462Z,11.27
2019-05-02T07:40:39.538Z,12.50
2019-05-02T07:43:43.222Z,11.70
2019-05-02T07:46:52.013Z,10.90
2019-05-02T07:49:52.607Z,11.30
2019-05-02T07:52:56.245Z,10.30
2019-05-02T07:55:59.990Z,11.17
2019-05-02T07:59:04.746Z,12.00
2019-05-02T08:02:08.538Z,10.67
2019-05-02T08:05:15.516Z,11.90
2019-05-02T08:08:18.602Z,12.77
2019-05-02T08:11:22.571Z,12.10
2019-05-02T08:14:29.148Z,11.37
2019-05-02T08:17:32.011Z,12.77
2019-05-02T08:20:35.673Z,13.27
2019-05-02T08:23:39.486Z,13.10
2019-05-02T08:27:00.960Z,14.27
2019-05-02T08:30:05.990Z,13.37
2019-05-02T08:33:09.790Z,14.27
2019-05-02T08:36:13.833Z,14.30
2019-05-02T08:39:17.866Z,14.13
2019-05-02T08:42:21.547Z,14.73
2019-05-02T08:45:25.883Z,13.70
2019-05-02T08:48:29.626Z,14.43
2019-05-02T08:51:33.330Z,14.07
2019-05-02T08:54:37.073Z,14.00
2019-05-02T08:57:41.077Z,14.00
2019-05-02T09:00:47.104Z,14.40
2019-05-02T09:03:55.537Z,14.90
2019-05-02T09:06:58.769Z,14.77
2019-05-02T09:10:05.675Z,14.13
2019-05-02T09:13:07.414Z,14.03
2019-05-02T09:16:12.076Z,15.23
2019-05-02T09:19:21.243Z,14.03
2019-05-02T09:22:22.162Z,15.23
2019-05-02T09:25:26.239Z,15.18
2019-05-02T09:28:32.107Z,14.23
2019-05-02T09:31:36.693Z,15.60
2019-05-02T09:34:42.365Z,14.53
2019-05-02T09:37:46.444Z,15.77
2019-05-02T09:40:52.544Z,15.60
2019-05-02T09:43:55.785Z,16.03
2019-05-02T09:46:59.445Z,14.63
2019-05-02T09:50:15.645Z,15.43
2019-05-02T09:53:20.926Z,16.47
2019-05-02T09:56:25.080Z,16.17
2019-05-02T09:59:33.244Z,16.17
2019-05-02T10:02:37.190Z,16.17
2019-05-02T10:05:42.907Z,15.65
2019-05-02T10:08:46.750Z,14.75
2019-05-02T10:11:52.532Z,15.83
2019-05-02T10:14:56.802Z,16.90
2019-05-02T10:18:08.635Z,16.80
2019-05-02T10:21:07.728Z,16.37
2019-05-02T10:24:12.674Z,16.33
2019-05-02T10:27:16.462Z,16.03
2019-05-02T10:30:23.216Z,15.90
2019-05-02T10:33:27.931Z,16.50
2019-05-02T10:36:32.601Z,16.80
2019-05-02T10:39:37.971Z,17.60
2019-05-02T10:42:41.994Z,17.80
2019-05-02T10:45:54.857Z,18.13
2019-05-02T10:49:01.942Z,16.27
2019-05-02T10:52:05.659Z,16.93
2019-05-02T10:55:09.474Z,17.33
2019-05-02T10:58:13.169Z,15.40
2019-05-02T11:01:18.012Z,16.13
2019-05-02T11:04:28.831Z,17.17
2019-05-02T11:07:28.231Z,16.40
2019-05-02T11:10:32.361Z,16.87
2019-05-02T11:14:05.610Z,16.47
2019-05-02T11:17:17.315Z,16.90
2019-05-02T11:20:18.862Z,16.77
2019-05-02T11:23:22.874Z,16.63
2019-05-02T11:26:26.782Z,17.13
2019-05-02T11:29:32.195Z,16.75
2019-05-02T11:32:35.991Z,16.60
2019-05-02T11:35:41.681Z,15.35
2019-05-02T11:38:47.876Z,17.13
2019-05-02T11:41:52.566Z,16.93
2019-05-02T11:44:56.993Z,17.73
2019-05-02T11:48:01.687Z,16.48
2019-05-02T11:51:07.383Z,16.60
2019-05-02T11:54:12.898Z,16.77
2019-05-02T11:57:21.285Z,16.77
2019-05-02T12:00:24.261Z,16.13
2019-05-02T12:03:36.942Z,15.97
2019-05-02T12:06:38.744Z,17.23
2019-05-02T12:09:44.294Z,16.13
2019-05-02T12:12:47.915Z,14.97
2019-05-02T12:15:52.054Z,16.00
2019-05-02T12:19:08.562Z,16.90
2019-05-02T12:22:02.596Z,16.03
2019-05-02T12:25:06.890Z,16.07
2019-05-02T12:28:11.984Z,15.07
2019-05-02T12:31:29.508Z,16.57
2019-05-02T12:34:33.467Z,15.10
2019-05-02T12:37:37.202Z,16.20
2019-05-02T12:40:42.169Z,14.77
2019-05-02T12:43:46.193Z,15.17
2019-05-02T12:46:51.633Z,15.10
2019-05-02T12:49:55.309Z,15.57
2019-05-02T12:52:59.459Z,14.27
2019-05-02T12:56:03.197Z,14.63
2019-05-02T12:59:07.046Z,14.13
2019-05-02T13:02:16.354Z,13.98
2019-05-02T13:05:22.095Z,13.83
2019-05-02T13:08:25.450Z,13.13
2019-05-02T13:11:57.864Z,13.27
2019-05-02T13:15:02.295Z,13.03
2019-05-02T13:18:06.695Z,12.60
2019-05-02T13:21:13.385Z,13.03
2019-05-02T13:24:33.702Z,13.07
2019-05-02T13:27:43.319Z,12.67
2019-05-02T13:30:51.670Z,12.00
2019-05-02T13:34:13.290Z,11.63
2019-05-02T13:37:16.691Z,11.83
2019-05-02T13:40:25.582Z,12.20
2019-05-02T13:43:34.646Z,12.53
2019-05-02T13:46:38.458Z,11.93
2019-05-02T13:49:53.563Z,12.00
2019-05-02T13:52:53.107Z,12.10
2019-05-02T13:56:02.099Z,12.58
2019-05-02T13:59:06.118Z,13.00
2019-05-02T14:02:31.751Z,12.17
2019-05-02T14:05:37.305Z,12.43
2019-05-02T14:09:02.912Z,12.70
2019-05-02T14:12:25.473Z,13.13
2019-05-02T14:15:34.942Z,12.73
2019-05-02T14:18:38.662Z,15.20
2019-05-02T14:21:42.505Z,13.27
2019-05-02T14:24:46.223Z,13.73
2019-05-02T14:27:53.861Z,13.27
2019-05-02T14:30:55.338Z,13.90
2019-05-02T14:34:16.591Z,14.20
2019-05-02T14:37:20.409Z,15.00
2019-05-02T14:40:31.922Z,15.17
2019-05-02T14:43:53.309Z,16.12
2019-05-02T14:46:57.253Z,16.07
2019-05-02T14:50:04.049Z,16.13
2019-05-02T14:53:06.565Z,14.68
2019-05-02T14:56:15.132Z,15.97
2019-05-02T14:59:20.080Z,16.77
2019-05-02T15:02:47.543Z,16.03
2019-05-02T15:05:49.027Z,16.33
2019-05-02T15:08:52.908Z,15.97
2019-05-02T15:12:03.454Z,16.13
2019-05-02T15:15:08.304Z,17.55
2019-05-02T15:18:17.246Z,17.83
2019-05-02T15:21:22.809Z,16.80
2019-05-02T15:24:27.703Z,18.23
2019-05-02T15:27:40.137Z,17.93
2019-05-02T15:30:44.813Z,17.63
2019-05-02T15:33:51.808Z,17.60
2019-05-02T15:36:55.573Z,17.27
2019-05-02T15:43:09.240Z,17.33
2019-05-02T15:46:14.954Z,18.27
2019-05-02T15:49:16.023Z,18.10
2019-05-02T15:52:27.816Z,19.20
2019-05-02T15:55:33.892Z,18.97
2019-05-02T15:58:35.409Z,18.97
2019-05-02T16:01:48.036Z,17.43
2019-05-02T16:04:52.232Z,18.65
2019-05-02T16:08:05.248Z,18.70
2019-05-02T16:11:02.941Z,18.70
2019-05-02T16:14:07.130Z,19.17
2019-05-02T16:17:12.477Z,18.80
2019-05-02T16:20:24.023Z,18.37
2019-05-02T16:23:32.887Z,18.97
2019-05-02T16:26:37.106Z,18.17
2019-05-02T16:29:39.085Z,19.60
2019-05-02T16:32:46.973Z,18.90
2019-05-02T16:35:53.498Z,19.60
2019-05-02T16:38:56.146Z,20.93
2019-05-02T16:42:02.405Z,18.57
2019-05-02T16:45:07.727Z,20.43
2019-05-02T16:48:12.103Z,18.90
2019-05-02T16:51:30.038Z,19.33
2019-05-02T16:54:22.390Z,20.50
2019-05-02T16:57:26.193Z,19.90
2019-05-02T17:00:32.019Z,18.80
2019-05-02T17:03:36.026Z,20.40
2019-05-02T17:06:39.970Z,19.30
2019-05-02T17:10:14.781Z,19.33
2019-05-02T17:13:14.240Z,19.07
2019-05-02T17:16:18.190Z,20.67
2019-05-02T17:19:26.205Z,21.70
2019-05-02T17:22:27.952Z,20.03
2019-05-02T17:25:32.242Z,22.40
2019-05-02T17:28:38.015Z,19.90
2019-05-02T17:31:42.697Z,24.90
2019-05-02T17:34:46.742Z,22.27
2019-05-02T17:37:52.456Z,23.03
2019-05-02T17:40:59.415Z,22.43
2019-05-02T17:44:03.196Z,22.70
2019-05-02T17:47:07.326Z,22.33
2019-05-02T17:50:33.929Z,22.20
2019-05-02T17:53:41.469Z,22.77
2019-05-02T17:56:43.254Z,23.47
2019-05-02T17:59:47.401Z,24.07
2019-05-02T18:02:51.725Z,24.03
2019-05-02T18:05:56.350Z,23.80
2019-05-02T18:09:00.137Z,23.33
2019-05-02T18:12:07.152Z,25.50
2019-05-02T18:15:11.828Z,25.23
2019-05-02T18:18:16.763Z,23.30
2019-05-02T18:21:26.902Z,25.87
2019-05-02T18:24:26.186Z,25.70
2019-05-02T18:27:29.885Z,25.73
2019-05-02T18:30:33.704Z,25.57
2019-05-02T18:33:41.563Z,26.85
2019-05-02T18:36:42.912Z,26.47
2019-05-02T18:39:53.323Z,29.27
2019-05-02T18:42:56.609Z,27.50
2019-05-02T18:45:58.280Z,27.17
2019-05-02T18:49:03.163Z,26.80
2019-05-02T18:52:06.894Z,27.10
2019-05-02T18:55:10.623Z,28.13
2019-05-02T18:58:14.341Z,28.97
2019-05-02T19:01:20.843Z,28.00
2019-05-02T19:04:25.379Z,27.37
2019-05-02T19:07:32.962Z,29.47
2019-05-02T19:10:37.013Z,27.10
2019-05-02T19:13:42.669Z,28.87
2019-05-02T19:16:45.434Z,26.87
2019-05-02T19:19:49.126Z,28.43
2019-05-02T19:22:56.662Z,26.53
2019-05-02T19:26:03.677Z,27.87
2019-05-02T19:29:17.096Z,26.90
2019-05-02T19:32:25.503Z,27.33
2019-05-02T19:35:25.194Z,26.80
2019-05-02T19:38:28.927Z,27.00
2019-05-02T19:41:32.613Z,26.13
2019-05-02T19:44:36.366Z,26.37
2019-05-02T19:47:42.010Z,24.55
2019-05-02T19:50:45.764Z,26.73
2019-05-02T19:53:53.429Z,25.60
2019-05-02T19:56:56.533Z,25.55
2019-05-02T20:00:02.822Z,24.20
2019-05-02T20:03:06.310Z,23.67
2019-05-02T20:06:10.145Z,23.60
2019-05-02T20:09:13.850Z,23.00
2019-05-02T20:12:17.742Z,22.87
2019-05-02T20:15:26.855Z,22.20
2019-05-02T20:18:28.245Z,21.27
2019-05-02T20:21:37.910Z,21.03
2019-05-02T20:24:59.903Z,19.83
2019-05-02T20:28:01.981Z,17.23
2019-05-02T20:31:05.914Z,14.63
2019-05-02T20:34:11.672Z,14.73
2019-05-02T20:37:15.085Z,13.83
2019-05-02T20:40:28.803Z,13.70
2019-05-02T20:43:32.493Z,12.73
2019-05-02T20:46:36.238Z,11.13
2019-05-02T20:49:39.962Z,11.10
2019-05-02T20:52:43.637Z,9.73
2019-05-02T20:55:47.858Z,10.67
2019-05-02T20:58:52.691Z,9.67
2019-05-02T21:01:56.538Z,10.77
2019-05-02T21:05:00.262Z,9.27
2019-05-02T21:08:23.107Z,9.50
2019-05-02T21:11:27.600Z,9.30
2019-05-02T21:14:31.441Z,9.27
2019-05-02T21:17:35.138Z,8.87
2019-05-02T21:20:38.817Z,9.47
2019-05-02T21:23:47.373Z,9.60
2019-05-02T21:26:47.891Z,8.50
2019-05-02T21:29:52.259Z,9.03
2019-05-02T21:32:56.105Z,9.63
2019-05-02T21:36:01.009Z,9.63
2019-05-02T21:39:11.756Z,9.17
2019-05-02T21:42:15.390Z,8.73
2019-05-02T21:45:19.105Z,8.27
2019-05-02T21:48:24.121Z,7.90
2019-05-02T21:51:35.345Z,7.37
2019-05-02T21:54:45.685Z,7.93
2019-05-02T21:57:49.681Z,7.07
2019-05-02T22:01:02.969Z,6.70
2019-05-02T22:04:06.975Z,6.57
2019-05-02T22:07:12.190Z,6.22
2019-05-02T22:10:16.298Z,6.23
2019-05-02T22:13:22.091Z,5.80
2019-05-02T22:16:25.469Z,6.10
2019-05-02T22:19:29.162Z,5.43
2019-05-02T22:22:34.364Z,5.63
2019-05-02T22:25:38.120Z,5.80
2019-05-02T22:28:41.831Z,5.10
2019-05-02T22:31:45.518Z,4.73
2019-05-02T22:34:49.296Z,4.90
2019-05-02T22:37:54.955Z,4.63
2019-05-02T22:40:59.313Z,4.67
2019-05-02T22:44:02.993Z,5.07
2019-05-02T22:47:06.710Z,4.40
2019-05-02T22:50:13.918Z,4.63
2019-05-02T22:53:16.145Z,4.67
2019-05-02T22:56:19.785Z,4.93
2019-05-02T22:59:23.989Z,5.00
2019-05-02T23:02:27.734Z,3.87
2019-05-02T23:05:32.125Z,4.27
2019-05-02T23:08:37.279Z,3.40
2019-05-02T23:11:42.625Z,3.70
2019-05-02T23:14:46.544Z,3.77
2019-05-02T23:17:52.285Z,3.60
2019-05-02T23:20:56.042Z,3.60
2019-05-02T23:24:01.747Z,3.30
2019-05-02T23:27:24.554Z,3.50
2019-05-02T23:30:28.222Z,3.50
2019-05-02T23:33:51.640Z,3.40
2019-05-02T23:36:55.377Z,3.83
2019-05-02T23:39:59.082Z,3.30
2019-05-02T23:43:02.759Z,3.60
2019-05-02T23:46:06.730Z,3.20
2019-05-02T23:49:12.544Z,3.43
2019-05-02T23:52:16.084Z,3.73
2019-05-02T23:55:19.728Z,3.70
2019-05-02T23:58:24.265Z,3.93
